sensor_id;sensor_type;location;lat;lon;timestamp;temperature;humidity
10123;DHT22;5101;49.038;8.710;2023-02-28T00:00:30;0.50;81.10
10123;DHT22;5101;49.038;8.710;2023-02-28T00:02:56;0.40;81.00
10123;DHT22;5101;49.038;8.710;2023-02-28T00:05:23;0.40;81.10
10123;DHT22;5101;49.038;8.710;2023-02-28T00:07:49;0.40;81.20
10123;DHT22;5101;49.038;8.710;2023-02-28T00:10:21;0.40;81.30
10123;DHT22;5101;49.038;8.710;2023-02-28T00:12:51;0.40;81.30
10123;DHT22;5101;49.038;8.710;2023-02-28T00:15:17;0.40;81.40
10123;DHT22;5101;49.038;8.710;2023-02-28T00:17:43;0.40;81.50
10123;DHT22;5101;49.038;8.710;2023-02-28T00:20:10;0.40;81.50
10123;DHT22;5101;49.038;8.710;2023-02-28T00:22:39;0.30;81.70
10123;DHT22;5101;49.038;8.710;2023-02-28T00:25:05;0.20;82.00
10123;DHT22;5101;49.038;8.710;2023-02-28T00:27:32;0.20;82.10
10123;DHT22;5101;49.038;8.710;2023-02-28T00:29:58;0.30;82.30
10123;DHT22;5101;49.038;8.710;2023-02-28T00:32:23;0.30;82.30
10123;DHT22;5101;49.038;8.710;2023-02-28T00:34:49;0.30;82.30
10123;DHT22;5101;49.038;8.710;2023-02-28T00:37:14;0.30;82.30
10123;DHT22;5101;49.038;8.710;2023-02-28T00:39:40;0.30;82.40
10123;DHT22;5101;49.038;8.710;2023-02-28T00:42:06;0.30;82.40
10123;DHT22;5101;49.038;8.710;2023-02-28T00:44:32;0.20;82.70
10123;DHT22;5101;49.038;8.710;2023-02-28T00:46:59;0.10;83.10
10123;DHT22;5101;49.038;8.710;2023-02-28T00:49:26;0.10;83.30
10123;DHT22;5101;49.038;8.710;2023-02-28T00:51:52;0.10;83.70
10123;DHT22;5101;49.038;8.710;2023-02-28T00:54:18;0.10;83.80
10123;DHT22;5101;49.038;8.710;2023-02-28T00:56:43;0.20;83.70
10123;DHT22;5101;49.038;8.710;2023-02-28T00:59:09;0.20;83.70
10123;DHT22;5101;49.038;8.710;2023-02-28T01:01:34;0.10;83.70
10123;DHT22;5101;49.038;8.710;2023-02-28T01:04:00;0.10;83.80
10123;DHT22;5101;49.038;8.710;2023-02-28T01:06:26;0.10;83.90
10123;DHT22;5101;49.038;8.710;2023-02-28T01:08:51;0.10;83.80
10123;DHT22;5101;49.038;8.710;2023-02-28T01:11:17;0.10;84.00
10123;DHT22;5101;49.038;8.710;2023-02-28T01:13:44;0.10;84.00
10123;DHT22;5101;49.038;8.710;2023-02-28T01:16:10;0.10;84.10
10123;DHT22;5101;49.038;8.710;2023-02-28T01:18:36;0.00;84.20
10123;DHT22;5101;49.038;8.710;2023-02-28T01:21:08;0.10;84.40
10123;DHT22;5101;49.038;8.710;2023-02-28T01:23:34;0.00;84.50
10123;DHT22;5101;49.038;8.710;2023-02-28T01:26:10;0.00;84.70
10123;DHT22;5101;49.038;8.710;2023-02-28T01:28:36;0.00;85.00
10123;DHT22;5101;49.038;8.710;2023-02-28T01:31:02;0.00;85.20
10123;DHT22;5101;49.038;8.710;2023-02-28T01:33:28;0.00;85.30
10123;DHT22;5101;49.038;8.710;2023-02-28T01:36:00;0.00;85.40
10123;DHT22;5101;49.038;8.710;2023-02-28T01:38:26;0.00;85.70
10123;DHT22;5101;49.038;8.710;2023-02-28T01:40:52;0.00;85.90
10123;DHT22;5101;49.038;8.710;2023-02-28T01:43:26;0.00;86.10
10123;DHT22;5101;49.038;8.710;2023-02-28T01:45:54;0.00;86.30
10123;DHT22;5101;49.038;8.710;2023-02-28T01:48:33;0.00;86.40
10123;DHT22;5101;49.038;8.710;2023-02-28T01:51:03;-0.10;86.70
10123;DHT22;5101;49.038;8.710;2023-02-28T01:53:35;-0.10;87.30
10123;DHT22;5101;49.038;8.710;2023-02-28T01:56:04;-0.10;87.50
10123;DHT22;5101;49.038;8.710;2023-02-28T01:58:30;-0.10;87.50
10123;DHT22;5101;49.038;8.710;2023-02-28T02:00:56;-0.10;87.80
10123;DHT22;5101;49.038;8.710;2023-02-28T02:03:23;-0.20;88.00
10123;DHT22;5101;49.038;8.710;2023-02-28T02:05:48;-0.10;88.50
10123;DHT22;5101;49.038;8.710;2023-02-28T02:08:21;-0.10;88.50
10123;DHT22;5101;49.038;8.710;2023-02-28T02:10:57;-0.10;88.70
10123;DHT22;5101;49.038;8.710;2023-02-28T02:13:38;-0.10;88.70
10123;DHT22;5101;49.038;8.710;2023-02-28T02:16:26;-0.10;88.50
10123;DHT22;5101;49.038;8.710;2023-02-28T02:30:40;-0.20;88.90
10123;DHT22;5101;49.038;8.710;2023-02-28T02:33:29;-0.20;89.10
10123;DHT22;5101;49.038;8.710;2023-02-28T02:38:52;-0.20;89.50
10123;DHT22;5101;49.038;8.710;2023-02-28T02:41:35;-0.20;89.60
10123;DHT22;5101;49.038;8.710;2023-02-28T02:44:13;-0.20;89.80
10123;DHT22;5101;49.038;8.710;2023-02-28T02:46:43;-0.30;90.00
10123;DHT22;5101;49.038;8.710;2023-02-28T02:49:15;-0.30;90.00
10123;DHT22;5101;49.038;8.710;2023-02-28T02:51:41;-0.20;90.10
10123;DHT22;5101;49.038;8.710;2023-02-28T02:56:42;-0.30;90.20
10123;DHT22;5101;49.038;8.710;2023-02-28T02:59:11;-0.30;90.20
10123;DHT22;5101;49.038;8.710;2023-02-28T03:01:38;-0.30;90.30
10123;DHT22;5101;49.038;8.710;2023-02-28T03:04:12;-0.30;90.40
10123;DHT22;5101;49.038;8.710;2023-02-28T03:06:38;-0.30;90.50
10123;DHT22;5101;49.038;8.710;2023-02-28T03:09:04;-0.30;90.50
10123;DHT22;5101;49.038;8.710;2023-02-28T03:11:30;-0.30;90.50
10123;DHT22;5101;49.038;8.710;2023-02-28T03:16:49;-0.30;90.60
10123;DHT22;5101;49.038;8.710;2023-02-28T03:19:43;-0.20;90.60
10123;DHT22;5101;49.038;8.710;2023-02-28T03:22:49;-0.20;90.70
10123;DHT22;5101;49.038;8.710;2023-02-28T03:28:05;-0.20;90.60
10123;DHT22;5101;49.038;8.710;2023-02-28T03:30:48;-0.10;90.60
10123;DHT22;5101;49.038;8.710;2023-02-28T03:33:24;-0.10;90.60
10123;DHT22;5101;49.038;8.710;2023-02-28T03:36:13;-0.10;90.60
10123;DHT22;5101;49.038;8.710;2023-02-28T03:38:50;0.20;90.70
10123;DHT22;5101;49.038;8.710;2023-02-28T03:41:25;-0.10;90.60
10123;DHT22;5101;49.038;8.710;2023-02-28T03:44:03;-0.10;90.60
10123;DHT22;5101;49.038;8.710;2023-02-28T03:46:36;-0.10;90.60
10123;DHT22;5101;49.038;8.710;2023-02-28T03:49:17;-0.10;90.60
10123;DHT22;5101;49.038;8.710;2023-02-28T03:51:45;-0.10;90.60
10123;DHT22;5101;49.038;8.710;2023-02-28T03:54:21;-0.10;90.60
10123;DHT22;5101;49.038;8.710;2023-02-28T03:56:59;-0.10;90.70
10123;DHT22;5101;49.038;8.710;2023-02-28T03:59:32;-0.10;90.70
10123;DHT22;5101;49.038;8.710;2023-02-28T04:01:59;-0.10;90.70
10123;DHT22;5101;49.038;8.710;2023-02-28T04:04:25;-0.10;90.70
10123;DHT22;5101;49.038;8.710;2023-02-28T04:06:52;-0.10;90.70
10123;DHT22;5101;49.038;8.710;2023-02-28T04:09:18;-0.10;90.70
10123;DHT22;5101;49.038;8.710;2023-02-28T04:11:45;-0.10;90.70
10123;DHT22;5101;49.038;8.710;2023-02-28T04:14:14;-0.10;90.80
10123;DHT22;5101;49.038;8.710;2023-02-28T04:16:41;-0.10;90.70
10123;DHT22;5101;49.038;8.710;2023-02-28T04:19:08;-0.10;90.80
10123;DHT22;5101;49.038;8.710;2023-02-28T04:21:37;-0.20;90.80
10123;DHT22;5101;49.038;8.710;2023-02-28T04:24:05;-0.10;90.80
10123;DHT22;5101;49.038;8.710;2023-02-28T04:26:33;-0.20;90.70
10123;DHT22;5101;49.038;8.710;2023-02-28T04:29:00;-0.10;90.80
10123;DHT22;5101;49.038;8.710;2023-02-28T04:31:25;-0.10;90.80
10123;DHT22;5101;49.038;8.710;2023-02-28T04:33:51;-0.20;90.80
10123;DHT22;5101;49.038;8.710;2023-02-28T04:36:17;-0.10;90.80
10123;DHT22;5101;49.038;8.710;2023-02-28T04:38:46;-0.10;90.80
10123;DHT22;5101;49.038;8.710;2023-02-28T04:41:12;-0.10;90.80
10123;DHT22;5101;49.038;8.710;2023-02-28T04:43:38;0.00;90.70
10123;DHT22;5101;49.038;8.710;2023-02-28T04:46:05;-0.10;90.70
10123;DHT22;5101;49.038;8.710;2023-02-28T04:48:33;-0.10;90.70
10123;DHT22;5101;49.038;8.710;2023-02-28T04:51:08;-0.10;90.70
10123;DHT22;5101;49.038;8.710;2023-02-28T04:53:35;-0.10;90.80
10123;DHT22;5101;49.038;8.710;2023-02-28T04:56:01;-0.20;90.80
10123;DHT22;5101;49.038;8.710;2023-02-28T04:58:27;-0.10;90.80
10123;DHT22;5101;49.038;8.710;2023-02-28T05:00:53;-0.20;90.80
10123;DHT22;5101;49.038;8.710;2023-02-28T05:03:20;-0.20;90.90
10123;DHT22;5101;49.038;8.710;2023-02-28T05:05:48;-0.20;90.90
10123;DHT22;5101;49.038;8.710;2023-02-28T05:08:14;-0.20;90.90
10123;DHT22;5101;49.038;8.710;2023-02-28T05:10:39;-0.10;90.90
10123;DHT22;5101;49.038;8.710;2023-02-28T05:13:05;-0.10;90.90
10123;DHT22;5101;49.038;8.710;2023-02-28T05:15:30;-0.20;90.90
10123;DHT22;5101;49.038;8.710;2023-02-28T05:17:56;-0.10;90.80
10123;DHT22;5101;49.038;8.710;2023-02-28T05:20:21;-0.10;90.80
10123;DHT22;5101;49.038;8.710;2023-02-28T05:22:47;-0.10;90.90
10123;DHT22;5101;49.038;8.710;2023-02-28T05:25:18;-0.10;90.90
10123;DHT22;5101;49.038;8.710;2023-02-28T05:27:44;-0.10;90.90
10123;DHT22;5101;49.038;8.710;2023-02-28T05:30:10;-0.10;90.90
10123;DHT22;5101;49.038;8.710;2023-02-28T05:32:37;0.00;90.90
10123;DHT22;5101;49.038;8.710;2023-02-28T05:35:03;0.00;90.80
10123;DHT22;5101;49.038;8.710;2023-02-28T05:37:29;0.00;90.90
10123;DHT22;5101;49.038;8.710;2023-02-28T05:39:54;0.00;90.90
10123;DHT22;5101;49.038;8.710;2023-02-28T05:42:20;-0.10;90.90
10123;DHT22;5101;49.038;8.710;2023-02-28T05:44:45;-0.10;91.00
10123;DHT22;5101;49.038;8.710;2023-02-28T05:47:11;-0.10;91.10
10123;DHT22;5101;49.038;8.710;2023-02-28T05:49:40;-0.10;91.20
10123;DHT22;5101;49.038;8.710;2023-02-28T05:52:06;-0.10;91.40
10123;DHT22;5101;49.038;8.710;2023-02-28T05:54:32;-0.10;91.40
10123;DHT22;5101;49.038;8.710;2023-02-28T05:56:57;-0.10;91.40
10123;DHT22;5101;49.038;8.710;2023-02-28T05:59:23;-0.10;91.50
10123;DHT22;5101;49.038;8.710;2023-02-28T06:01:48;-0.10;91.70
10123;DHT22;5101;49.038;8.710;2023-02-28T06:04:16;-0.10;91.70
10123;DHT22;5101;49.038;8.710;2023-02-28T06:06:45;-0.10;91.70
10123;DHT22;5101;49.038;8.710;2023-02-28T06:09:11;-0.20;91.80
10123;DHT22;5101;49.038;8.710;2023-02-28T06:11:37;-0.10;91.90
10123;DHT22;5101;49.038;8.710;2023-02-28T06:14:03;-0.10;91.80
10123;DHT22;5101;49.038;8.710;2023-02-28T06:16:29;-0.10;91.80
10123;DHT22;5101;49.038;8.710;2023-02-28T06:18:57;-0.10;91.70
10123;DHT22;5101;49.038;8.710;2023-02-28T06:21:23;-0.10;91.80
10123;DHT22;5101;49.038;8.710;2023-02-28T06:23:49;-0.10;91.80
10123;DHT22;5101;49.038;8.710;2023-02-28T06:26:14;-0.10;91.80
10123;DHT22;5101;49.038;8.710;2023-02-28T06:28:40;-0.10;91.70
10123;DHT22;5101;49.038;8.710;2023-02-28T06:31:11;-0.10;91.70
10123;DHT22;5101;49.038;8.710;2023-02-28T06:33:38;-0.10;91.70
10123;DHT22;5101;49.038;8.710;2023-02-28T06:36:04;-0.10;91.70
10123;DHT22;5101;49.038;8.710;2023-02-28T06:38:31;0.00;91.60
10123;DHT22;5101;49.038;8.710;2023-02-28T06:40:57;0.00;91.60
10123;DHT22;5101;49.038;8.710;2023-02-28T06:43:24;0.00;91.60
10123;DHT22;5101;49.038;8.710;2023-02-28T06:45:53;0.10;91.70
10123;DHT22;5101;49.038;8.710;2023-02-28T06:48:19;0.20;91.60
10123;DHT22;5101;49.038;8.710;2023-02-28T06:50:44;0.20;91.50
10123;DHT22;5101;49.038;8.710;2023-02-28T06:53:10;0.20;91.40
10123;DHT22;5101;49.038;8.710;2023-02-28T06:55:37;0.20;91.40
10123;DHT22;5101;49.038;8.710;2023-02-28T06:58:03;0.10;91.40
10123;DHT22;5101;49.038;8.710;2023-02-28T07:00:28;0.10;91.30
10123;DHT22;5101;49.038;8.710;2023-02-28T07:02:54;0.10;91.30
10123;DHT22;5101;49.038;8.710;2023-02-28T07:05:20;0.10;91.30
10123;DHT22;5101;49.038;8.710;2023-02-28T07:07:45;0.20;91.20
10123;DHT22;5101;49.038;8.710;2023-02-28T07:10:12;0.20;91.20
10123;DHT22;5101;49.038;8.710;2023-02-28T07:12:39;0.20;91.20
10123;DHT22;5101;49.038;8.710;2023-02-28T07:15:06;0.20;91.10
10123;DHT22;5101;49.038;8.710;2023-02-28T07:17:31;0.20;91.10
10123;DHT22;5101;49.038;8.710;2023-02-28T07:19:57;0.20;91.10
10123;DHT22;5101;49.038;8.710;2023-02-28T07:22:22;0.20;91.20
10123;DHT22;5101;49.038;8.710;2023-02-28T07:24:48;0.20;91.10
10123;DHT22;5101;49.038;8.710;2023-02-28T07:27:13;0.20;91.10
10123;DHT22;5101;49.038;8.710;2023-02-28T07:29:52;0.20;91.20
10123;DHT22;5101;49.038;8.710;2023-02-28T07:32:19;0.20;91.10
10123;DHT22;5101;49.038;8.710;2023-02-28T07:34:44;0.10;91.10
10123;DHT22;5101;49.038;8.710;2023-02-28T07:37:10;0.20;91.10
10123;DHT22;5101;49.038;8.710;2023-02-28T07:39:35;0.20;91.10
10123;DHT22;5101;49.038;8.710;2023-02-28T07:42:05;0.30;91.10
10123;DHT22;5101;49.038;8.710;2023-02-28T07:44:31;0.30;91.00
10123;DHT22;5101;49.038;8.710;2023-02-28T07:46:57;0.30;91.00
10123;DHT22;5101;49.038;8.710;2023-02-28T07:49:22;0.30;91.00
10123;DHT22;5101;49.038;8.710;2023-02-28T07:51:48;0.30;90.90
10123;DHT22;5101;49.038;8.710;2023-02-28T07:54:14;0.40;90.90
10123;DHT22;5101;49.038;8.710;2023-02-28T07:56:39;0.40;90.90
10123;DHT22;5101;49.038;8.710;2023-02-28T07:59:04;0.50;90.90
10123;DHT22;5101;49.038;8.710;2023-02-28T08:01:30;0.50;90.80
10123;DHT22;5101;49.038;8.710;2023-02-28T08:03:55;0.50;90.80
10123;DHT22;5101;49.038;8.710;2023-02-28T08:06:24;0.50;90.80
10123;DHT22;5101;49.038;8.710;2023-02-28T08:08:50;0.50;90.70
10123;DHT22;5101;49.038;8.710;2023-02-28T08:11:17;0.60;90.60
10123;DHT22;5101;49.038;8.710;2023-02-28T08:13:43;0.70;90.60
10123;DHT22;5101;49.038;8.710;2023-02-28T08:16:10;0.60;90.60
10123;DHT22;5101;49.038;8.710;2023-02-28T08:18:36;0.60;90.50
10123;DHT22;5101;49.038;8.710;2023-02-28T08:21:09;0.50;90.50
10123;DHT22;5101;49.038;8.710;2023-02-28T08:23:35;0.50;90.50
10123;DHT22;5101;49.038;8.710;2023-02-28T08:26:00;0.60;90.50
10123;DHT22;5101;49.038;8.710;2023-02-28T08:28:26;0.70;90.50
10123;DHT22;5101;49.038;8.710;2023-02-28T08:30:51;0.80;90.40
10123;DHT22;5101;49.038;8.710;2023-02-28T08:33:17;0.90;90.30
10123;DHT22;5101;49.038;8.710;2023-02-28T08:35:42;1.00;90.30
10123;DHT22;5101;49.038;8.710;2023-02-28T08:38:08;1.00;90.20
10123;DHT22;5101;49.038;8.710;2023-02-28T08:40:33;1.00;90.00
10123;DHT22;5101;49.038;8.710;2023-02-28T08:42:59;1.10;90.00
10123;DHT22;5101;49.038;8.710;2023-02-28T08:45:25;1.20;89.80
10123;DHT22;5101;49.038;8.710;2023-02-28T08:47:54;1.30;89.60
10123;DHT22;5101;49.038;8.710;2023-02-28T08:50:19;1.40;89.30
10123;DHT22;5101;49.038;8.710;2023-02-28T08:52:45;1.40;88.90
10123;DHT22;5101;49.038;8.710;2023-02-28T08:55:10;1.50;88.60
10123;DHT22;5101;49.038;8.710;2023-02-28T08:57:36;1.70;88.30
10123;DHT22;5101;49.038;8.710;2023-02-28T09:00:03;1.90;87.90
10123;DHT22;5101;49.038;8.710;2023-02-28T09:02:32;1.90;87.00
10123;DHT22;5101;49.038;8.710;2023-02-28T09:04:58;1.90;86.60
10123;DHT22;5101;49.038;8.710;2023-02-28T09:07:24;2.00;85.80
10123;DHT22;5101;49.038;8.710;2023-02-28T09:09:50;2.40;85.20
10123;DHT22;5101;49.038;8.710;2023-02-28T09:12:25;2.60;84.30
10123;DHT22;5101;49.038;8.710;2023-02-28T09:14:51;3.00;83.40
10123;DHT22;5101;49.038;8.710;2023-02-28T09:17:17;3.30;82.10
10123;DHT22;5101;49.038;8.710;2023-02-28T09:19:44;3.40;79.50
10123;DHT22;5101;49.038;8.710;2023-02-28T09:22:10;3.60;78.60
10123;DHT22;5101;49.038;8.710;2023-02-28T09:24:37;4.10;77.50
10123;DHT22;5101;49.038;8.710;2023-02-28T09:27:03;4.30;76.50
10123;DHT22;5101;49.038;8.710;2023-02-28T09:29:28;4.60;75.40
10123;DHT22;5101;49.038;8.710;2023-02-28T09:31:54;5.00;74.30
10123;DHT22;5101;49.038;8.710;2023-02-28T09:34:21;4.90;72.80
10123;DHT22;5101;49.038;8.710;2023-02-28T09:36:46;4.70;72.00
10123;DHT22;5101;49.038;8.710;2023-02-28T09:39:13;4.50;71.20
10123;DHT22;5101;49.038;8.710;2023-02-28T09:41:43;4.50;71.10
10123;DHT22;5101;49.038;8.710;2023-02-28T09:44:43;4.30;70.90
10123;DHT22;5101;49.038;8.710;2023-02-28T09:47:24;4.20;71.00
10123;DHT22;5101;49.038;8.710;2023-02-28T09:49:51;3.80;71.10
10123;DHT22;5101;49.038;8.710;2023-02-28T09:52:28;3.80;71.50
10123;DHT22;5101;49.038;8.710;2023-02-28T09:54:55;3.80;71.30
10123;DHT22;5101;49.038;8.710;2023-02-28T09:57:38;3.80;71.50
10123;DHT22;5101;49.038;8.710;2023-02-28T10:00:18;3.70;71.50
10123;DHT22;5101;49.038;8.710;2023-02-28T10:03:25;3.80;71.50
10123;DHT22;5101;49.038;8.710;2023-02-28T10:05:54;4.00;71.80
10123;DHT22;5101;49.038;8.710;2023-02-28T10:08:31;3.70;71.60
10123;DHT22;5101;49.038;8.710;2023-02-28T10:11:01;3.70;71.60
10123;DHT22;5101;49.038;8.710;2023-02-28T10:16:16;3.70;71.60
10123;DHT22;5101;49.038;8.710;2023-02-28T10:19:09;3.60;71.60
10123;DHT22;5101;49.038;8.710;2023-02-28T10:21:41;3.60;71.80
10123;DHT22;5101;49.038;8.710;2023-02-28T10:24:30;3.60;71.70
10123;DHT22;5101;49.038;8.710;2023-02-28T10:27:00;3.60;71.90
10123;DHT22;5101;49.038;8.710;2023-02-28T10:29:28;3.60;71.70
10123;DHT22;5101;49.038;8.710;2023-02-28T10:31:56;3.70;71.70
10123;DHT22;5101;49.038;8.710;2023-02-28T10:34:24;3.60;71.60
10123;DHT22;5101;49.038;8.710;2023-02-28T10:36:50;3.60;71.80
10123;DHT22;5101;49.038;8.710;2023-02-28T10:39:40;3.60;71.70
10123;DHT22;5101;49.038;8.710;2023-02-28T10:42:23;3.80;71.60
10123;DHT22;5101;49.038;8.710;2023-02-28T10:45:14;3.70;71.40
10123;DHT22;5101;49.038;8.710;2023-02-28T10:47:53;3.80;71.20
10123;DHT22;5101;49.038;8.710;2023-02-28T10:50:45;4.00;71.20
10123;DHT22;5101;49.038;8.710;2023-02-28T10:56:03;4.50;70.50
10123;DHT22;5101;49.038;8.710;2023-02-28T10:58:32;4.30;69.80
10123;DHT22;5101;49.038;8.710;2023-02-28T11:01:13;4.50;69.70
10123;DHT22;5101;49.038;8.710;2023-02-28T11:03:39;4.60;68.80
10123;DHT22;5101;49.038;8.710;2023-02-28T11:06:07;4.60;68.40
10123;DHT22;5101;49.038;8.710;2023-02-28T11:08:34;4.80;67.90
10123;DHT22;5101;49.038;8.710;2023-02-28T11:11:08;4.80;67.50
10123;DHT22;5101;49.038;8.710;2023-02-28T11:13:35;4.90;66.90
10123;DHT22;5101;49.038;8.710;2023-02-28T11:16:09;5.10;66.60
10123;DHT22;5101;49.038;8.710;2023-02-28T11:21:07;5.00;66.60
10123;DHT22;5101;49.038;8.710;2023-02-28T11:23:36;5.20;66.30
10123;DHT22;5101;49.038;8.710;2023-02-28T11:26:03;5.40;66.00
10123;DHT22;5101;49.038;8.710;2023-02-28T11:28:31;5.10;65.00
10123;DHT22;5101;49.038;8.710;2023-02-28T11:31:14;5.20;64.60
10123;DHT22;5101;49.038;8.710;2023-02-28T11:38:50;5.30;63.80
10123;DHT22;5101;49.038;8.710;2023-02-28T11:41:31;5.40;63.90
10123;DHT22;5101;49.038;8.710;2023-02-28T11:47:13;5.70;63.80
10123;DHT22;5101;49.038;8.710;2023-02-28T11:50:01;6.00;64.70
10123;DHT22;5101;49.038;8.710;2023-02-28T11:52:40;6.20;65.20
10123;DHT22;5101;49.038;8.710;2023-02-28T11:55:26;6.20;64.50
10123;DHT22;5101;49.038;8.710;2023-02-28T11:58:03;6.20;63.20
10123;DHT22;5101;49.038;8.710;2023-02-28T12:00:55;6.20;62.20
10123;DHT22;5101;49.038;8.710;2023-02-28T12:06:19;5.90;60.10
10123;DHT22;5101;49.038;8.710;2023-02-28T12:09:10;5.90;60.00
10123;DHT22;5101;49.038;8.710;2023-02-28T12:11:45;6.10;59.90
10123;DHT22;5101;49.038;8.710;2023-02-28T12:27:42;6.00;58.40
10123;DHT22;5101;49.038;8.710;2023-02-28T12:30:33;6.10;58.40
10123;DHT22;5101;49.038;8.710;2023-02-28T12:33:09;6.30;58.60
10123;DHT22;5101;49.038;8.710;2023-02-28T12:35:55;6.30;58.30
10123;DHT22;5101;49.038;8.710;2023-02-28T12:38:27;6.30;57.90
10123;DHT22;5101;49.038;8.710;2023-02-28T12:41:02;6.40;57.50
10123;DHT22;5101;49.038;8.710;2023-02-28T12:43:39;6.50;57.20
10123;DHT22;5101;49.038;8.710;2023-02-28T12:46:12;6.60;57.60
10123;DHT22;5101;49.038;8.710;2023-02-28T12:48:44;6.50;55.60
10123;DHT22;5101;49.038;8.710;2023-02-28T12:51:12;6.50;55.50
10123;DHT22;5101;49.038;8.710;2023-02-28T12:59:34;6.50;55.60
10123;DHT22;5101;49.038;8.710;2023-02-28T13:10:44;6.30;54.70
10123;DHT22;5101;49.038;8.710;2023-02-28T13:13:16;6.20;54.60
10123;DHT22;5101;49.038;8.710;2023-02-28T13:16:17;6.40;55.00
10123;DHT22;5101;49.038;8.710;2023-02-28T13:18:45;6.30;55.30
10123;DHT22;5101;49.038;8.710;2023-02-28T13:21:28;6.20;55.00
10123;DHT22;5101;49.038;8.710;2023-02-28T13:24:01;6.20;55.10
10123;DHT22;5101;49.038;8.710;2023-02-28T13:34:41;6.30;55.40
10123;DHT22;5101;49.038;8.710;2023-02-28T13:45:29;6.40;55.30
10123;DHT22;5101;49.038;8.710;2023-02-28T13:48:01;6.60;55.20
10123;DHT22;5101;49.038;8.710;2023-02-28T13:50:32;6.70;55.00
10123;DHT22;5101;49.038;8.710;2023-02-28T13:56:09;6.60;55.00
10123;DHT22;5101;49.038;8.710;2023-02-28T13:59:06;6.70;55.20
10123;DHT22;5101;49.038;8.710;2023-02-28T14:05:15;6.60;54.40
10123;DHT22;5101;49.038;8.710;2023-02-28T14:07:54;6.60;54.40
10123;DHT22;5101;49.038;8.710;2023-02-28T14:10:34;6.40;54.80
10123;DHT22;5101;49.038;8.710;2023-02-28T14:15:57;6.40;54.70
10123;DHT22;5101;49.038;8.710;2023-02-28T14:21:14;6.50;55.40
10123;DHT22;5101;49.038;8.710;2023-02-28T14:29:23;6.40;55.00
10123;DHT22;5101;49.038;8.710;2023-02-28T14:34:41;6.60;54.90
10123;DHT22;5101;49.038;8.710;2023-02-28T14:37:13;6.70;54.40
10123;DHT22;5101;49.038;8.710;2023-02-28T14:39:42;6.60;54.50
10123;DHT22;5101;49.038;8.710;2023-02-28T14:42:28;6.50;54.20
10123;DHT22;5101;49.038;8.710;2023-02-28T14:44:54;6.50;54.40
10123;DHT22;5101;49.038;8.710;2023-02-28T14:47:21;6.50;54.10
10123;DHT22;5101;49.038;8.710;2023-02-28T14:49:48;6.40;54.20
10123;DHT22;5101;49.038;8.710;2023-02-28T14:52:22;6.40;54.40
10123;DHT22;5101;49.038;8.710;2023-02-28T14:55:17;6.30;54.30
10123;DHT22;5101;49.038;8.710;2023-02-28T15:00:26;6.40;54.60
10123;DHT22;5101;49.038;8.710;2023-02-28T15:02:54;6.50;54.60
10123;DHT22;5101;49.038;8.710;2023-02-28T15:05:24;6.50;54.60
10123;DHT22;5101;49.038;8.710;2023-02-28T15:08:06;6.50;54.80
10123;DHT22;5101;49.038;8.710;2023-02-28T15:10:35;6.70;55.30
10123;DHT22;5101;49.038;8.710;2023-02-28T15:13:06;6.70;55.20
10123;DHT22;5101;49.038;8.710;2023-02-28T15:15:41;6.40;54.20
10123;DHT22;5101;49.038;8.710;2023-02-28T15:18:15;6.30;54.50
10123;DHT22;5101;49.038;8.710;2023-02-28T15:20:44;6.20;54.50
10123;DHT22;5101;49.038;8.710;2023-02-28T15:23:11;6.20;54.60
10123;DHT22;5101;49.038;8.710;2023-02-28T15:25:36;6.20;54.80
10123;DHT22;5101;49.038;8.710;2023-02-28T15:28:02;6.30;54.90
10123;DHT22;5101;49.038;8.710;2023-02-28T15:30:30;6.30;54.50
10123;DHT22;5101;49.038;8.710;2023-02-28T15:35:37;6.30;54.90
10123;DHT22;5101;49.038;8.710;2023-02-28T15:38:25;6.20;55.00
10123;DHT22;5101;49.038;8.710;2023-02-28T15:40:57;6.20;55.10
10123;DHT22;5101;49.038;8.710;2023-02-28T15:43:25;6.10;54.90
10123;DHT22;5101;49.038;8.710;2023-02-28T15:45:55;6.00;55.20
10123;DHT22;5101;49.038;8.710;2023-02-28T15:48:28;6.20;55.60
10123;DHT22;5101;49.038;8.710;2023-02-28T15:51:20;5.90;55.40
10123;DHT22;5101;49.038;8.710;2023-02-28T15:53:58;5.90;55.90
10123;DHT22;5101;49.038;8.710;2023-02-28T15:56:29;5.80;55.90
10123;DHT22;5101;49.038;8.710;2023-02-28T15:59:02;5.80;56.10
10123;DHT22;5101;49.038;8.710;2023-02-28T16:01:30;5.80;56.30
10123;DHT22;5101;49.038;8.710;2023-02-28T16:04:00;5.80;56.40
10123;DHT22;5101;49.038;8.710;2023-02-28T16:08:56;5.80;56.70
10123;DHT22;5101;49.038;8.710;2023-02-28T16:11:22;5.80;56.90
10123;DHT22;5101;49.038;8.710;2023-02-28T16:13:48;5.90;56.90
10123;DHT22;5101;49.038;8.710;2023-02-28T16:16:19;5.80;56.90
10123;DHT22;5101;49.038;8.710;2023-02-28T16:18:45;5.80;57.00
10123;DHT22;5101;49.038;8.710;2023-02-28T16:21:11;6.00;57.30
10123;DHT22;5101;49.038;8.710;2023-02-28T16:23:36;5.80;57.10
10123;DHT22;5101;49.038;8.710;2023-02-28T16:26:03;5.70;57.20
10123;DHT22;5101;49.038;8.710;2023-02-28T16:28:31;5.70;57.40
10123;DHT22;5101;49.038;8.710;2023-02-28T16:31:02;5.70;57.60
10123;DHT22;5101;49.038;8.710;2023-02-28T16:33:29;5.90;58.20
10123;DHT22;5101;49.038;8.710;2023-02-28T16:35:55;5.60;58.20
10123;DHT22;5101;49.038;8.710;2023-02-28T16:38:20;5.50;58.30
10123;DHT22;5101;49.038;8.710;2023-02-28T16:40:49;5.50;58.40
10123;DHT22;5101;49.038;8.710;2023-02-28T16:43:18;5.50;58.60
10123;DHT22;5101;49.038;8.710;2023-02-28T16:45:45;5.60;58.90
10123;DHT22;5101;49.038;8.710;2023-02-28T16:48:15;5.50;59.10
10123;DHT22;5101;49.038;8.710;2023-02-28T16:50:41;5.50;59.40
10123;DHT22;5101;49.038;8.710;2023-02-28T16:53:07;5.40;59.30
10123;DHT22;5101;49.038;8.710;2023-02-28T16:55:34;5.30;59.50
10123;DHT22;5101;49.038;8.710;2023-02-28T16:58:01;5.30;59.70
10123;DHT22;5101;49.038;8.710;2023-02-28T17:00:28;5.30;60.00
10123;DHT22;5101;49.038;8.710;2023-02-28T17:02:55;5.40;60.30
10123;DHT22;5101;49.038;8.710;2023-02-28T17:05:21;5.10;60.20
10123;DHT22;5101;49.038;8.710;2023-02-28T17:07:47;5.10;60.40
10123;DHT22;5101;49.038;8.710;2023-02-28T17:10:27;5.10;60.70
10123;DHT22;5101;49.038;8.710;2023-02-28T17:12:52;5.00;61.00
10123;DHT22;5101;49.038;8.710;2023-02-28T17:15:19;5.00;61.30
10123;DHT22;5101;49.038;8.710;2023-02-28T17:17:46;5.00;61.60
10123;DHT22;5101;49.038;8.710;2023-02-28T17:20:17;5.00;61.70
10123;DHT22;5101;49.038;8.710;2023-02-28T17:22:43;5.00;61.90
10123;DHT22;5101;49.038;8.710;2023-02-28T17:25:09;4.90;62.20
10123;DHT22;5101;49.038;8.710;2023-02-28T17:27:36;4.90;62.50
10123;DHT22;5101;49.038;8.710;2023-02-28T17:30:08;4.90;62.90
10123;DHT22;5101;49.038;8.710;2023-02-28T17:32:34;4.90;63.10
10123;DHT22;5101;49.038;8.710;2023-02-28T17:34:59;4.80;63.30
10123;DHT22;5101;49.038;8.710;2023-02-28T17:37:25;5.20;63.80
10123;DHT22;5101;49.038;8.710;2023-02-28T17:39:50;5.10;63.90
10123;DHT22;5101;49.038;8.710;2023-02-28T17:42:16;4.80;63.90
10123;DHT22;5101;49.038;8.710;2023-02-28T17:44:41;4.70;64.00
10123;DHT22;5101;49.038;8.710;2023-02-28T17:47:08;4.70;64.20
10123;DHT22;5101;49.038;8.710;2023-02-28T17:49:35;4.70;64.50
10123;DHT22;5101;49.038;8.710;2023-02-28T17:52:00;4.60;64.60
10123;DHT22;5101;49.038;8.710;2023-02-28T17:54:26;4.50;64.60
10123;DHT22;5101;49.038;8.710;2023-02-28T17:56:51;4.50;64.60
10123;DHT22;5101;49.038;8.710;2023-02-28T17:59:17;4.50;64.90
10123;DHT22;5101;49.038;8.710;2023-02-28T18:01:42;4.70;66.40
10123;DHT22;5101;49.038;8.710;2023-02-28T18:04:08;4.70;67.70
10123;DHT22;5101;49.038;8.710;2023-02-28T18:06:39;4.60;67.70
10123;DHT22;5101;49.038;8.710;2023-02-28T18:09:12;4.50;67.50